sensor_id;sensor_type;location;lat;lon;timestamp;pressure;altitude;pressure_sealevel;temperature;humidity
35577;BME280;21680;52.400;16.920;2022-12-24T00:01:47;99608.08;;;4.81;100.00
35577;BME280;21680;52.400;16.920;2022-12-24T00:04:13;99609.71;;;4.80;100.00
35577;BME280;21680;52.400;16.920;2022-12-24T00:06:38;99609.22;;;4.79;100.00
35577;BME280;21680;52.400;16.920;2022-12-24T00:09:03;99612.26;;;4.78;100.00
35577;BME280;21680;52.400;16.920;2022-12-24T00:11:28;99611.05;;;4.77;100.00
35577;BME280;21680;52.400;16.920;2022-12-24T00:13:54;99613.71;;;4.77;100.00
35577;BME280;21680;52.400;16.920;2022-12-24T00:16:19;99614.23;;;4.77;100.00
35577;BME280;21680;52.400;16.920;2022-12-24T00:18:44;99610.98;;;4.79;100.00
35577;BME280;21680;52.400;16.920;2022-12-24T00:21:10;99614.52;;;4.79;100.00
35577;BME280;21680;52.400;16.920;2022-12-24T00:23:35;99620.08;;;4.77;100.00
35577;BME280;21680;52.400;16.920;2022-12-24T00:26:00;99616.66;;;4.74;100.00
35577;BME280;21680;52.400;16.920;2022-12-24T00:28:26;99614.61;;;4.72;100.00
35577;BME280;21680;52.400;16.920;2022-12-24T00:30:51;99614.99;;;4.71;100.00
35577;BME280;21680;52.400;16.920;2022-12-24T00:33:16;99613.58;;;4.71;100.00
35577;BME280;21680;52.400;16.920;2022-12-24T00:35:41;99614.34;;;4.70;100.00
35577;BME280;21680;52.400;16.920;2022-12-24T00:38:08;99617.05;;;4.68;100.00
35577;BME280;21680;52.400;16.920;2022-12-24T00:40:33;99615.05;;;4.69;100.00
35577;BME280;21680;52.400;16.920;2022-12-24T00:42:58;99611.23;;;4.72;100.00
35577;BME280;21680;52.400;16.920;2022-12-24T00:45:24;99608.81;;;4.75;100.00
35577;BME280;21680;52.400;16.920;2022-12-24T00:47:51;99607.59;;;4.75;100.00
35577;BME280;21680;52.400;16.920;2022-12-24T00:50:17;99606.99;;;4.77;100.00
35577;BME280;21680;52.400;16.920;2022-12-24T00:52:42;99606.50;;;4.76;100.00
35577;BME280;21680;52.400;16.920;2022-12-24T00:55:08;99609.92;;;4.74;100.00
35577;BME280;21680;52.400;16.920;2022-12-24T00:57:33;99611.69;;;4.74;100.00
35577;BME280;21680;52.400;16.920;2022-12-24T00:59:58;99609.05;;;4.74;100.00
35577;BME280;21680;52.400;16.920;2022-12-24T01:02:24;99609.09;;;4.73;100.00
35577;BME280;21680;52.400;16.920;2022-12-24T01:04:49;99605.56;;;4.72;100.00
35577;BME280;21680;52.400;16.920;2022-12-24T01:07:34;99602.43;;;4.71;100.00
35577;BME280;21680;52.400;16.920;2022-12-24T01:10:00;99603.00;;;4.70;100.00
35577;BME280;21680;52.400;16.920;2022-12-24T01:12:25;99600.56;;;4.69;100.00
35577;BME280;21680;52.400;16.920;2022-12-24T01:14:51;99598.33;;;4.67;100.00
35577;BME280;21680;52.400;16.920;2022-12-24T01:17:16;99606.82;;;4.62;100.00
35577;BME280;21680;52.400;16.920;2022-12-24T01:19:41;99606.88;;;4.61;100.00
35577;BME280;21680;52.400;16.920;2022-12-24T01:22:07;99607.06;;;4.60;100.00
35577;BME280;21680;52.400;16.920;2022-12-24T01:24:33;99605.09;;;4.61;100.00
35577;BME280;21680;52.400;16.920;2022-12-24T01:26:58;99602.97;;;4.61;100.00
35577;BME280;21680;52.400;16.920;2022-12-24T01:29:24;99603.90;;;4.60;100.00
35577;BME280;21680;52.400;16.920;2022-12-24T01:31:49;99605.34;;;4.59;100.00
35577;BME280;21680;52.400;16.920;2022-12-24T01:34:20;99601.88;;;4.57;100.00
35577;BME280;21680;52.400;16.920;2022-12-24T01:36:46;99602.54;;;4.59;100.00
35577;BME280;21680;52.400;16.920;2022-12-24T01:39:11;99597.05;;;4.59;100.00
35577;BME280;21680;52.400;16.920;2022-12-24T01:41:36;99597.42;;;4.58;100.00
35577;BME280;21680;52.400;16.920;2022-12-24T01:44:27;99597.61;;;4.58;100.00
35577;BME280;21680;52.400;16.920;2022-12-24T01:47:14;99594.67;;;4.55;100.00
35577;BME280;21680;52.400;16.920;2022-12-24T01:49:43;99599.01;;;4.53;100.00
35577;BME280;21680;52.400;16.920;2022-12-24T01:52:17;99598.17;;;4.52;100.00
35577;BME280;21680;52.400;16.920;2022-12-24T01:55:02;99597.31;;;4.51;100.00
35577;BME280;21680;52.400;16.920;2022-12-24T01:57:42;99598.15;;;4.52;100.00
35577;BME280;21680;52.400;16.920;2022-12-24T02:00:12;99598.61;;;4.54;100.00
35577;BME280;21680;52.400;16.920;2022-12-24T02:02:39;99595.53;;;4.56;100.00
35577;BME280;21680;52.400;16.920;2022-12-24T02:07:33;99600.80;;;4.58;100.00
35577;BME280;21680;52.400;16.920;2022-12-24T02:09:59;99600.37;;;4.60;100.00
35577;BME280;21680;52.400;16.920;2022-12-24T02:12:30;99595.70;;;4.62;100.00
35577;BME280;21680;52.400;16.920;2022-12-24T02:14:56;99596.73;;;4.62;100.00
35577;BME280;21680;52.400;16.920;2022-12-24T02:36:42;99591.36;;;4.59;100.00
35577;BME280;21680;52.400;16.920;2022-12-24T02:39:16;99594.79;;;4.62;100.00
35577;BME280;21680;52.400;16.920;2022-12-24T02:41:49;99592.70;;;4.61;100.00
35577;BME280;21680;52.400;16.920;2022-12-24T02:47:05;99601.36;;;4.62;100.00
35577;BME280;21680;52.400;16.920;2022-12-24T02:49:31;99605.73;;;4.63;100.00
35577;BME280;21680;52.400;16.920;2022-12-24T02:51:56;99608.92;;;4.63;100.00
35577;BME280;21680;52.400;16.920;2022-12-24T02:54:22;99609.25;;;4.64;100.00
35577;BME280;21680;52.400;16.920;2022-12-24T02:59:35;99604.02;;;4.66;100.00
35577;BME280;21680;52.400;16.920;2022-12-24T03:07:58;99614.66;;;4.61;100.00
35577;BME280;21680;52.400;16.920;2022-12-24T03:10:40;99620.86;;;4.60;100.00
35577;BME280;21680;52.400;16.920;2022-12-24T03:13:15;99623.15;;;4.61;100.00
35577;BME280;21680;52.400;16.920;2022-12-24T03:15:41;99626.91;;;4.60;100.00
35577;BME280;21680;52.400;16.920;2022-12-24T03:18:09;99626.80;;;4.58;100.00
35577;BME280;21680;52.400;16.920;2022-12-24T03:20:49;99626.62;;;4.58;100.00
35577;BME280;21680;52.400;16.920;2022-12-24T03:23:16;99622.48;;;4.54;100.00
35577;BME280;21680;52.400;16.920;2022-12-24T03:25:43;99625.20;;;4.53;100.00
35577;BME280;21680;52.400;16.920;2022-12-24T03:28:13;99623.64;;;4.52;100.00
35577;BME280;21680;52.400;16.920;2022-12-24T03:30:41;99623.98;;;4.52;100.00
35577;BME280;21680;52.400;16.920;2022-12-24T03:33:07;99623.43;;;4.53;100.00
35577;BME280;21680;52.400;16.920;2022-12-24T03:35:33;99621.29;;;4.53;100.00
35577;BME280;21680;52.400;16.920;2022-12-24T03:37:58;99627.48;;;4.53;100.00
35577;BME280;21680;52.400;16.920;2022-12-24T03:40:23;99624.98;;;4.54;100.00
35577;BME280;21680;52.400;16.920;2022-12-24T03:42:49;99627.48;;;4.53;100.00
35577;BME280;21680;52.400;16.920;2022-12-24T03:45:14;99628.44;;;4.51;100.00
35577;BME280;21680;52.400;16.920;2022-12-24T03:47:39;99626.67;;;4.51;100.00
35577;BME280;21680;52.400;16.920;2022-12-24T03:50:05;99629.34;;;4.50;100.00
35577;BME280;21680;52.400;16.920;2022-12-24T03:52:31;99636.96;;;4.50;100.00
35577;BME280;21680;52.400;16.920;2022-12-24T03:54:56;99641.92;;;4.50;100.00
35577;BME280;21680;52.400;16.920;2022-12-24T03:57:21;99643.46;;;4.46;100.00
35577;BME280;21680;52.400;16.920;2022-12-24T03:59:47;99647.27;;;4.44;100.00
35577;BME280;21680;52.400;16.920;2022-12-24T04:02:12;99650.69;;;4.42;100.00
35577;BME280;21680;52.400;16.920;2022-12-24T04:04:37;99655.66;;;4.42;100.00
35577;BME280;21680;52.400;16.920;2022-12-24T04:07:03;99654.99;;;4.40;100.00
35577;BME280;21680;52.400;16.920;2022-12-24T04:09:29;99660.52;;;4.39;100.00
35577;BME280;21680;52.400;16.920;2022-12-24T04:11:54;99659.27;;;4.39;100.00
35577;BME280;21680;52.400;16.920;2022-12-24T04:14:19;99654.02;;;4.38;100.00
35577;BME280;21680;52.400;16.920;2022-12-24T04:16:45;99659.90;;;4.37;100.00
35577;BME280;21680;52.400;16.920;2022-12-24T04:19:10;99661.67;;;4.36;100.00
35577;BME280;21680;52.400;16.920;2022-12-24T04:21:35;99666.49;;;4.35;100.00
35577;BME280;21680;52.400;16.920;2022-12-24T04:24:01;99669.58;;;4.33;100.00
35577;BME280;21680;52.400;16.920;2022-12-24T04:26:26;99676.15;;;4.32;100.00
35577;BME280;21680;52.400;16.920;2022-12-24T04:28:51;99672.64;;;4.31;100.00
35577;BME280;21680;52.400;16.920;2022-12-24T04:31:17;99671.73;;;4.32;100.00
35577;BME280;21680;52.400;16.920;2022-12-24T04:33:43;99672.41;;;4.33;100.00
35577;BME280;21680;52.400;16.920;2022-12-24T04:36:11;99670.67;;;4.32;100.00
35577;BME280;21680;52.400;16.920;2022-12-24T04:38:37;99675.87;;;4.30;100.00
35577;BME280;21680;52.400;16.920;2022-12-24T04:41:15;99676.91;;;4.31;100.00
35577;BME280;21680;52.400;16.920;2022-12-24T04:43:41;99678.48;;;4.31;100.00
35577;BME280;21680;52.400;16.920;2022-12-24T04:46:09;99682.77;;;4.30;100.00
35577;BME280;21680;52.400;16.920;2022-12-24T04:48:36;99684.21;;;4.29;100.00
35577;BME280;21680;52.400;16.920;2022-12-24T04:51:04;99685.48;;;4.28;100.00
35577;BME280;21680;52.400;16.920;2022-12-24T04:53:30;99679.98;;;4.29;100.00
35577;BME280;21680;52.400;16.920;2022-12-24T04:55:56;99680.92;;;4.27;100.00
35577;BME280;21680;52.400;16.920;2022-12-24T04:58:22;99686.43;;;4.26;100.00
35577;BME280;21680;52.400;16.920;2022-12-24T05:00:47;99685.88;;;4.26;100.00
35577;BME280;21680;52.400;16.920;2022-12-24T05:03:12;99686.05;;;4.27;100.00
35577;BME280;21680;52.400;16.920;2022-12-24T05:05:38;99692.05;;;4.27;100.00
35577;BME280;21680;52.400;16.920;2022-12-24T05:08:03;99692.78;;;4.26;100.00
35577;BME280;21680;52.400;16.920;2022-12-24T05:10:29;99696.72;;;4.25;100.00
35577;BME280;21680;52.400;16.920;2022-12-24T05:12:54;99701.55;;;4.23;100.00
35577;BME280;21680;52.400;16.920;2022-12-24T05:15:19;99710.61;;;4.21;100.00
35577;BME280;21680;52.400;16.920;2022-12-24T05:17:45;99706.92;;;4.21;100.00
35577;BME280;21680;52.400;16.920;2022-12-24T05:20:10;99708.54;;;4.20;100.00
35577;BME280;21680;52.400;16.920;2022-12-24T05:22:35;99706.49;;;4.18;100.00
35577;BME280;21680;52.400;16.920;2022-12-24T05:25:20;99707.26;;;4.16;100.00
35577;BME280;21680;52.400;16.920;2022-12-24T05:28:04;99714.53;;;4.15;100.00
35577;BME280;21680;52.400;16.920;2022-12-24T05:30:29;99715.91;;;4.16;100.00
35577;BME280;21680;52.400;16.920;2022-12-24T05:32:54;99719.42;;;4.17;100.00
35577;BME280;21680;52.400;16.920;2022-12-24T05:35:20;99724.19;;;4.17;100.00
35577;BME280;21680;52.400;16.920;2022-12-24T05:37:45;99728.11;;;4.16;100.00
35577;BME280;21680;52.400;16.920;2022-12-24T05:40:10;99732.56;;;4.15;100.00
35577;BME280;21680;52.400;16.920;2022-12-24T05:42:36;99738.48;;;4.13;100.00
35577;BME280;21680;52.400;16.920;2022-12-24T05:45:01;99739.93;;;4.12;100.00
35577;BME280;21680;52.400;16.920;2022-12-24T05:47:26;99740.92;;;4.08;100.00
35577;BME280;21680;52.400;16.920;2022-12-24T05:49:51;99743.27;;;4.07;100.00
35577;BME280;21680;52.400;16.920;2022-12-24T05:52:17;99746.84;;;4.06;100.00
35577;BME280;21680;52.400;16.920;2022-12-24T05:54:42;99752.44;;;4.08;100.00
35577;BME280;21680;52.400;16.920;2022-12-24T05:57:07;99755.77;;;4.08;100.00
35577;BME280;21680;52.400;16.920;2022-12-24T05:59:33;99757.95;;;4.07;100.00
35577;BME280;21680;52.400;16.920;2022-12-24T06:01:58;99764.16;;;4.06;100.00
35577;BME280;21680;52.400;16.920;2022-12-24T06:04:23;99769.98;;;4.07;100.00
35577;BME280;21680;52.400;16.920;2022-12-24T06:06:49;99772.05;;;4.08;100.00
35577;BME280;21680;52.400;16.920;2022-12-24T06:09:14;99780.20;;;4.08;100.00
35577;BME280;21680;52.400;16.920;2022-12-24T06:11:41;99774.75;;;4.07;100.00
35577;BME280;21680;52.400;16.920;2022-12-24T06:14:06;99778.84;;;4.06;100.00
35577;BME280;21680;52.400;16.920;2022-12-24T06:16:32;99777.38;;;4.02;100.00
35577;BME280;21680;52.400;16.920;2022-12-24T06:18:57;99779.20;;;4.00;100.00
35577;BME280;21680;52.400;16.920;2022-12-24T06:21:23;99784.17;;;3.99;100.00
35577;BME280;21680;52.400;16.920;2022-12-24T06:23:48;99779.83;;;3.96;100.00
35577;BME280;21680;52.400;16.920;2022-12-24T06:26:19;99786.22;;;3.96;100.00
35577;BME280;21680;52.400;16.920;2022-12-24T06:28:47;99790.64;;;3.95;100.00
35577;BME280;21680;52.400;16.920;2022-12-24T06:31:14;99792.46;;;3.94;100.00
35577;BME280;21680;52.400;16.920;2022-12-24T06:33:40;99793.07;;;3.91;100.00
35577;BME280;21680;52.400;16.920;2022-12-24T06:36:07;99796.99;;;3.90;100.00
35577;BME280;21680;52.400;16.920;2022-12-24T06:38:32;99794.83;;;3.86;100.00
35577;BME280;21680;52.400;16.920;2022-12-24T06:40:58;99803.94;;;3.82;100.00
35577;BME280;21680;52.400;16.920;2022-12-24T06:43:23;99806.59;;;3.82;100.00
35577;BME280;21680;52.400;16.920;2022-12-24T06:45:48;99811.20;;;3.82;100.00
35577;BME280;21680;52.400;16.920;2022-12-24T06:48:14;99819.68;;;3.82;100.00
35577;BME280;21680;52.400;16.920;2022-12-24T06:50:40;99823.56;;;3.81;100.00
35577;BME280;21680;52.400;16.920;2022-12-24T06:53:06;99826.55;;;3.82;100.00
35577;BME280;21680;52.400;16.920;2022-12-24T06:55:32;99832.74;;;3.82;100.00
35577;BME280;21680;52.400;16.920;2022-12-24T06:57:57;99834.17;;;3.81;100.00
35577;BME280;21680;52.400;16.920;2022-12-24T07:00:23;99840.02;;;3.81;100.00
35577;BME280;21680;52.400;16.920;2022-12-24T07:02:48;99843.73;;;3.81;100.00
35577;BME280;21680;52.400;16.920;2022-12-24T07:05:14;99850.48;;;3.79;100.00
35577;BME280;21680;52.400;16.920;2022-12-24T07:07:42;99861.66;;;3.78;100.00
35577;BME280;21680;52.400;16.920;2022-12-24T07:10:10;99867.83;;;3.78;100.00
35577;BME280;21680;52.400;16.920;2022-12-24T07:12:36;99869.37;;;3.80;100.00
35577;BME280;21680;52.400;16.920;2022-12-24T07:15:02;99870.39;;;3.82;100.00
35577;BME280;21680;52.400;16.920;2022-12-24T07:17:27;99870.08;;;3.80;100.00
35577;BME280;21680;52.400;16.920;2022-12-24T07:19:52;99874.36;;;3.79;100.00
35577;BME280;21680;52.400;16.920;2022-12-24T07:22:18;99880.55;;;3.79;100.00
35577;BME280;21680;52.400;16.920;2022-12-24T07:24:43;99890.25;;;3.79;100.00
35577;BME280;21680;52.400;16.920;2022-12-24T07:27:08;99894.50;;;3.79;100.00
35577;BME280;21680;52.400;16.920;2022-12-24T07:29:34;99900.41;;;3.76;100.00
35577;BME280;21680;52.400;16.920;2022-12-24T07:31:59;99904.84;;;3.76;100.00
35577;BME280;21680;52.400;16.920;2022-12-24T07:34:25;99908.30;;;3.79;100.00
35577;BME280;21680;52.400;16.920;2022-12-24T07:36:50;99910.55;;;3.80;100.00
35577;BME280;21680;52.400;16.920;2022-12-24T07:39:15;99912.86;;;3.80;100.00
35577;BME280;21680;52.400;16.920;2022-12-24T07:41:40;99912.15;;;3.80;100.00
35577;BME280;21680;52.400;16.920;2022-12-24T07:44:10;99913.25;;;3.78;100.00
35577;BME280;21680;52.400;16.920;2022-12-24T07:46:36;99918.25;;;3.76;100.00
35577;BME280;21680;52.400;16.920;2022-12-24T07:49:01;99918.64;;;3.76;100.00
35577;BME280;21680;52.400;16.920;2022-12-24T07:51:26;99924.42;;;3.77;100.00
35577;BME280;21680;52.400;16.920;2022-12-24T07:53:51;99924.39;;;3.78;100.00
35577;BME280;21680;52.400;16.920;2022-12-24T07:56:17;99931.39;;;3.81;100.00
35577;BME280;21680;52.400;16.920;2022-12-24T07:58:42;99934.89;;;3.82;100.00
35577;BME280;21680;52.400;16.920;2022-12-24T08:01:08;99939.30;;;3.82;100.00
35577;BME280;21680;52.400;16.920;2022-12-24T08:03:33;99946.84;;;3.84;100.00
35577;BME280;21680;52.400;16.920;2022-12-24T08:05:59;99948.60;;;3.85;100.00
35577;BME280;21680;52.400;16.920;2022-12-24T08:08:25;99955.64;;;3.86;100.00
35577;BME280;21680;52.400;16.920;2022-12-24T08:10:50;99960.90;;;3.87;100.00
35577;BME280;21680;52.400;16.920;2022-12-24T08:13:16;99964.44;;;3.87;100.00
35577;BME280;21680;52.400;16.920;2022-12-24T08:15:42;99970.15;;;3.84;100.00
35577;BME280;21680;52.400;16.920;2022-12-24T08:18:09;99971.60;;;3.83;100.00
35577;BME280;21680;52.400;16.920;2022-12-24T08:20:37;99973.60;;;3.88;100.00
35577;BME280;21680;52.400;16.920;2022-12-24T08:23:02;99977.33;;;3.87;100.00
35577;BME280;21680;52.400;16.920;2022-12-24T08:25:27;99978.92;;;3.87;100.00
35577;BME280;21680;52.400;16.920;2022-12-24T08:27:53;99980.48;;;3.88;100.00
35577;BME280;21680;52.400;16.920;2022-12-24T08:30:18;99988.42;;;3.89;100.00
35577;BME280;21680;52.400;16.920;2022-12-24T08:32:43;99984.13;;;3.91;100.00
35577;BME280;21680;52.400;16.920;2022-12-24T08:35:09;99988.52;;;3.92;100.00
35577;BME280;21680;52.400;16.920;2022-12-24T08:37:34;99989.77;;;3.91;100.00
35577;BME280;21680;52.400;16.920;2022-12-24T08:39:59;99999.30;;;3.91;100.00
35577;BME280;21680;52.400;16.920;2022-12-24T08:42:25;100002.45;;;4.00;100.00
35577;BME280;21680;52.400;16.920;2022-12-24T08:44:50;100011.54;;;4.10;100.00
35577;BME280;21680;52.400;16.920;2022-12-24T08:47:15;100015.50;;;4.07;100.00
35577;BME280;21680;52.400;16.920;2022-12-24T08:49:40;100020.57;;;4.09;100.00
35577;BME280;21680;52.400;16.920;2022-12-24T08:52:06;100024.20;;;4.06;100.00
35577;BME280;21680;52.400;16.920;2022-12-24T08:54:31;100027.84;;;4.02;100.00
35577;BME280;21680;52.400;16.920;2022-12-24T08:56:56;100029.94;;;4.03;100.00
35577;BME280;21680;52.400;16.920;2022-12-24T08:59:22;100030.61;;;4.04;100.00
35577;BME280;21680;52.400;16.920;2022-12-24T09:01:47;100032.14;;;4.06;100.00
35577;BME280;21680;52.400;16.920;2022-12-24T09:04:12;100037.83;;;4.06;100.00
35577;BME280;21680;52.400;16.920;2022-12-24T09:06:38;100037.60;;;4.07;100.00
35577;BME280;21680;52.400;16.920;2022-12-24T09:09:04;100038.03;;;4.11;100.00
35577;BME280;21680;52.400;16.920;2022-12-24T09:11:29;100036.69;;;4.15;100.00
35577;BME280;21680;52.400;16.920;2022-12-24T09:13:55;100031.75;;;4.15;100.00
35577;BME280;21680;52.400;16.920;2022-12-24T09:16:20;100034.99;;;4.12;100.00
35577;BME280;21680;52.400;16.920;2022-12-24T09:18:45;100037.63;;;4.13;100.00
35577;BME280;21680;52.400;16.920;2022-12-24T09:21:14;100044.50;;;4.14;100.00
35577;BME280;21680;52.400;16.920;2022-12-24T09:23:41;100048.09;;;4.12;100.00
35577;BME280;21680;52.400;16.920;2022-12-24T09:26:09;100046.30;;;4.13;100.00
35577;BME280;21680;52.400;16.920;2022-12-24T09:28:34;100048.67;;;4.17;100.00
35577;BME280;21680;52.400;16.920;2022-12-24T09:31:02;100048.19;;;4.21;100.00
35577;BME280;21680;52.400;16.920;2022-12-24T09:33:30;100053.02;;;4.26;100.00
35577;BME280;21680;52.400;16.920;2022-12-24T09:35:57;100059.61;;;4.31;100.00
35577;BME280;21680;52.400;16.920;2022-12-24T09:38:23;100070.33;;;4.34;100.00
35577;BME280;21680;52.400;16.920;2022-12-24T09:40:49;100076.13;;;4.35;100.00
35577;BME280;21680;52.400;16.920;2022-12-24T09:43:18;100079.13;;;4.35;100.00
35577;BME280;21680;52.400;16.920;2022-12-24T09:46:00;100079.09;;;4.30;100.00
35577;BME280;21680;52.400;16.920;2022-12-24T09:48:29;100082.70;;;4.27;100.00
35577;BME280;21680;52.400;16.920;2022-12-24T09:53:38;100081.08;;;4.28;100.00
35577;BME280;21680;52.400;16.920;2022-12-24T09:56:15;100087.27;;;4.28;100.00
35577;BME280;21680;52.400;16.920;2022-12-24T09:58:47;100090.17;;;4.32;100.00
35577;BME280;21680;52.400;16.920;2022-12-24T10:01:16;100088.24;;;4.38;100.00
35577;BME280;21680;52.400;16.920;2022-12-24T10:03:42;100091.11;;;4.43;100.00
35577;BME280;21680;52.400;16.920;2022-12-24T10:06:13;100098.13;;;4.45;100.00
35577;BME280;21680;52.400;16.920;2022-12-24T10:11:41;100102.15;;;4.47;100.00
35577;BME280;21680;52.400;16.920;2022-12-24T10:19:24;100122.89;;;4.58;100.00
35577;BME280;21680;52.400;16.920;2022-12-24T10:22:12;100121.08;;;4.67;100.00
35577;BME280;21680;52.400;16.920;2022-12-24T10:25:00;100123.74;;;4.72;100.00
35577;BME280;21680;52.400;16.920;2022-12-24T10:27:31;100122.65;;;4.73;100.00
35577;BME280;21680;52.400;16.920;2022-12-24T10:30:02;100129.71;;;4.74;100.00
35577;BME280;21680;52.400;16.920;2022-12-24T10:32:32;100132.50;;;4.76;100.00
35577;BME280;21680;52.400;16.920;2022-12-24T10:37:40;100133.66;;;4.72;100.00
35577;BME280;21680;52.400;16.920;2022-12-24T10:40:24;100135.81;;;4.71;100.00
35577;BME280;21680;52.400;16.920;2022-12-24T10:42:52;100143.64;;;4.76;100.00
35577;BME280;21680;52.400;16.920;2022-12-24T10:45:20;100147.32;;;4.77;100.00
35577;BME280;21680;52.400;16.920;2022-12-24T10:47:48;100151.19;;;4.78;100.00
35577;BME280;21680;52.400;16.920;2022-12-24T10:50:42;100150.55;;;4.82;100.00
35577;BME280;21680;52.400;16.920;2022-12-24T10:53:20;100153.50;;;4.84;100.00
35577;BME280;21680;52.400;16.920;2022-12-24T10:55:47;100155.58;;;4.79;100.00
35577;BME280;21680;52.400;16.920;2022-12-24T10:58:18;100158.70;;;4.75;100.00
35577;BME280;21680;52.400;16.920;2022-12-24T11:00:52;100162.80;;;4.80;100.00
35577;BME280;21680;52.400;16.920;2022-12-24T11:05:42;100161.86;;;4.89;100.00
35577;BME280;21680;52.400;16.920;2022-12-24T11:10:39;100163.83;;;4.75;100.00
35577;BME280;21680;52.400;16.920;2022-12-24T11:13:43;100169.52;;;4.74;100.00
35577;BME280;21680;52.400;16.920;2022-12-24T11:16:22;100170.52;;;4.77;100.00
35577;BME280;21680;52.400;16.920;2022-12-24T11:18:51;100172.92;;;4.80;100.00
35577;BME280;21680;52.400;16.920;2022-12-24T11:21:32;100173.23;;;4.81;100.00
35577;BME280;21680;52.400;16.920;2022-12-24T11:24:26;100177.25;;;4.83;100.00
35577;BME280;21680;52.400;16.920;2022-12-24T11:26:53;100179.64;;;4.79;100.00
35577;BME280;21680;52.400;16.920;2022-12-24T11:29:21;100183.61;;;4.77;100.00
35577;BME280;21680;52.400;16.920;2022-12-24T11:31:48;100182.77;;;4.76;100.00
35577;BME280;21680;52.400;16.920;2022-12-24T11:34:27;100188.48;;;4.74;100.00
35577;BME280;21680;52.400;16.920;2022-12-24T11:37:06;100187.45;;;4.73;100.00
35577;BME280;21680;52.400;16.920;2022-12-24T11:39:38;100190.20;;;4.75;100.00
35577;BME280;21680;52.400;16.920;2022-12-24T11:42:04;100195.85;;;4.76;100.00
35577;BME280;21680;52.400;16.920;2022-12-24T11:44:29;100197.35;;;4.79;100.00
35577;BME280;21680;52.400;16.920;2022-12-24T11:46:55;100197.95;;;4.77;100.00
35577;BME280;21680;52.400;16.920;2022-12-24T11:49:29;100201.20;;;4.75;100.00
35577;BME280;21680;52.400;16.920;2022-12-24T11:57:53;100213.69;;;4.64;100.00
35577;BME280;21680;52.400;16.920;2022-12-24T12:00:20;100215.02;;;4.54;100.00
35577;BME280;21680;52.400;16.920;2022-12-24T12:02:47;100214.83;;;4.47;100.00
35577;BME280;21680;52.400;16.920;2022-12-24T12:05:22;100217.11;;;4.41;100.00
35577;BME280;21680;52.400;16.920;2022-12-24T12:07:52;100217.69;;;4.39;100.00
35577;BME280;21680;52.400;16.920;2022-12-24T12:10:24;100219.96;;;4.40;100.00
35577;BME280;21680;52.400;16.920;2022-12-24T12:13:14;100227.30;;;4.37;100.00
35577;BME280;21680;52.400;16.920;2022-12-24T12:16:05;100230.85;;;4.36;100.00
35577;BME280;21680;52.400;16.920;2022-12-24T12:18:36;100244.25;;;4.38;100.00
35577;BME280;21680;52.400;16.920;2022-12-24T12:21:06;100245.69;;;4.37;100.00
35577;BME280;21680;52.400;16.920;2022-12-24T12:24:02;100238.67;;;4.42;100.00
35577;BME280;21680;52.400;16.920;2022-12-24T12:26:29;100241.09;;;4.44;100.00
35577;BME280;21680;52.400;16.920;2022-12-24T12:31:48;100240.36;;;4.52;100.00
35577;BME280;21680;52.400;16.920;2022-12-24T12:34:39;100248.76;;;4.56;100.00
35577;BME280;21680;52.400;16.920;2022-12-24T12:37:14;100250.29;;;4.59;100.00
35577;BME280;21680;52.400;16.920;2022-12-24T12:39:44;100245.78;;;4.62;100.00
35577;BME280;21680;52.400;16.920;2022-12-24T12:47:38;100249.02;;;4.67;100.00
35577;BME280;21680;52.400;16.920;2022-12-24T12:50:26;100244.72;;;4.69;100.00
35577;BME280;21680;52.400;16.920;2022-12-24T12:56:09;100261.69;;;4.69;100.00
35577;BME280;21680;52.400;16.920;2022-12-24T12:59:07;100267.13;;;4.65;100.00
35577;BME280;21680;52.400;16.920;2022-12-24T13:21:19;100303.88;;;4.60;100.00
35577;BME280;21680;52.400;16.920;2022-12-24T13:23:47;100306.25;;;4.57;100.00
35577;BME280;21680;52.400;16.920;2022-12-24T13:26:13;100309.26;;;4.57;100.00
35577;BME280;21680;52.400;16.920;2022-12-24T13:28:40;100318.39;;;4.60;100.00
35577;BME280;21680;52.400;16.920;2022-12-24T13:36:12;100312.23;;;4.51;100.00
35577;BME280;21680;52.400;16.920;2022-12-24T13:44:13;100318.64;;;4.42;100.00
35577;BME280;21680;52.400;16.920;2022-12-24T13:49:50;100318.05;;;4.44;100.00
35577;BME280;21680;52.400;16.920;2022-12-24T13:52:21;100324.64;;;4.42;100.00
35577;BME280;21680;52.400;16.920;2022-12-24T13:55:12;100325.89;;;4.42;100.00
35577;BME280;21680;52.400;16.920;2022-12-24T13:57:53;100324.16;;;4.40;100.00
35577;BME280;21680;52.400;16.920;2022-12-24T14:02:55;100326.53;;;4.44;100.00
35577;BME280;21680;52.400;16.920;2022-12-24T14:05:38;100334.79;;;4.39;100.00
35577;BME280;21680;52.400;16.920;2022-12-24T14:18:32;100338.34;;;4.32;100.00
35577;BME280;21680;52.400;16.920;2022-12-24T14:20:59;100346.37;;;4.28;100.00
35577;BME280;21680;52.400;16.920;2022-12-24T14:23:34;100353.11;;;4.27;100.00
35577;BME280;21680;52.400;16.920;2022-12-24T14:26:02;100360.94;;;4.25;100.00
35577;BME280;21680;52.400;16.920;2022-12-24T14:28:42;100366.09;;;4.24;100.00
35577;BME280;21680;52.400;16.920;2022-12-24T14:31:16;100373.02;;;4.23;100.00
35577;BME280;21680;52.400;16.920;2022-12-24T14:33:42;100376.73;;;4.22;100.00
35577;BME280;21680;52.400;16.920;2022-12-24T14:36:08;100374.45;;;4.22;100.00
35577;BME280;21680;52.400;16.920;2022-12-24T14:38:33;100374.08;;;4.22;100.00
35577;BME280;21680;52.400;16.920;2022-12-24T14:41:21;100378.81;;;4.25;100.00
35577;BME280;21680;52.400;16.920;2022-12-24T14:47:18;100396.61;;;4.19;100.00
35577;BME280;21680;52.400;16.920;2022-12-24T14:55:30;100403.48;;;4.21;100.00
35577;BME280;21680;52.400;16.920;2022-12-24T14:58:35;100397.11;;;4.21;100.00